PWSweather.com
Personal Weather Stations
Station Observations
NAGEO265NE
Bedzin GrodziecPL 42-506

Bedzin GrodziecPL 42-506

Lat: 50.347, Lon: 19.079

Elevation: 948

Station Type: WH1080

http://www.meteo-grodziec.pl/

Latest ConditionsUpdated 8:25:02 AM GMT+01:01 Tuesday, Oct 17, 2017
Currently Today's Max Today's Min Today's Average
Temperature 55.4°F13.0°C 55.6°F13.1°C 48.6°F9.2°C 52.5°F11.4°C
Dew Point 54.3°F12.4°C 54.3°F12.4°C 47.5°F8.6°C 51.5°F10.8°C
Winds Calm Calm 1.0 mph SW1.6 kmh SW - 0.1 mph 0.2 kmh
Wind Gusts 2.0 mph3.2 kmh 2.0 mph3.2 kmh - -
Humidity 96% 98% 95% 96%
Pressure 30.27 in1025.1 mb 30.27 in1025.1 mb 30.25 in1024.4 mb -
Precipitation - 0.01 in0.3 mm - -
Hour Temp Dew Point Humidity Winds Wind Gusts Pressure Precip Precip Rate Daily Precip Total
08:25 AM 55.4°F13.0°C 54.3°F12.4°C 96% Calm Calm 2.0 mph3.2 kmh 30.27 in1025.1 mb 0.00 in0.0 mm 0.00 in0.0 mm 0.01 in0.3 mm
08:20 AM 55.0°F12.8°C 54.0°F12.2°C 96% Calm Calm 2.0 mph3.2 kmh 30.27 in1025.1 mb 0.00 in0.0 mm 0.00 in0.0 mm 0.01 in0.3 mm
08:15 AM 54.7°F12.6°C 53.8°F12.1°C 97% Calm Calm 1.0 mph1.6 kmh 30.27 in1025.1 mb 0.00 in0.0 mm 0.00 in0.0 mm 0.01 in0.3 mm
08:10 AM 54.3°F12.4°C 53.6°F12.0°C 97% Calm Calm 1.0 mph1.6 kmh 30.27 in1025.1 mb 0.00 in0.0 mm 0.00 in0.0 mm 0.01 in0.3 mm
08:05 AM 54.0°F12.2°C 53.2°F11.8°C 97% Calm Calm 1.0 mph1.6 kmh 30.27 in1025.1 mb 0.00 in0.0 mm 0.00 in0.0 mm 0.01 in0.3 mm
08:00 AM 54.0°F12.2°C 53.2°F11.8°C 97% Calm Calm 1.0 mph1.6 kmh 30.27 in1025.1 mb 0.00 in0.0 mm 0.00 in0.0 mm 0.01 in0.3 mm
07:55 AM 54.0°F12.2°C 53.4°F11.9°C 98% Calm Calm -- 30.27 in1025.1 mb 0.00 in0.0 mm 0.00 in0.0 mm 0.01 in0.3 mm
07:50 AM 53.2°F11.8°C 52.3°F11.3°C 97% Calm Calm -- 30.27 in1025.1 mb 0.00 in0.0 mm 0.00 in0.0 mm 0.01 in0.3 mm
07:45 AM 52.9°F11.6°C 52.0°F11.1°C 97% Calm Calm -- 30.27 in1025.1 mb 0.00 in0.0 mm 0.00 in0.0 mm 0.01 in0.3 mm
07:40 AM 52.2°F11.2°C 51.4°F10.8°C 97% Calm Calm -- 30.27 in1025.1 mb 0.00 in0.0 mm 0.00 in0.0 mm 0.01 in0.3 mm
07:35 AM 51.4°F10.8°C 50.7°F10.4°C 97% Calm Calm -- 30.27 in1025.1 mb 0.00 in0.0 mm 0.00 in0.0 mm 0.01 in0.3 mm
07:30 AM 51.3°F10.7°C 50.4°F10.2°C 97% Calm Calm -- 30.27 in1025.1 mb 0.00 in0.0 mm 0.00 in0.0 mm 0.01 in0.3 mm
07:25 AM 51.1°F10.6°C 50.4°F10.2°C 97% Calm Calm -- 30.27 in1025.1 mb 0.00 in0.0 mm 0.00 in0.0 mm 0.01 in0.3 mm
07:20 AM 51.3°F10.7°C 50.4°F10.2°C 97% Calm Calm -- 30.27 in1025.1 mb 0.00 in0.0 mm 0.00 in0.0 mm 0.01 in0.3 mm
07:15 AM 51.3°F10.7°C 50.5°F10.3°C 97% Calm Calm -- 30.27 in1025.1 mb 0.00 in0.0 mm 0.00 in0.0 mm 0.01 in0.3 mm
07:10 AM 51.6°F10.9°C 51.1°F10.6°C 98% Calm Calm -- 30.27 in1025.1 mb 0.00 in0.0 mm 0.00 in0.0 mm 0.01 in0.3 mm
07:05 AM 51.6°F10.9°C 51.1°F10.6°C 98% Calm Calm -- 30.27 in1025.1 mb 0.00 in0.0 mm 0.00 in0.0 mm 0.01 in0.3 mm
07:00 AM 51.1°F10.6°C 50.5°F10.3°C 98% Calm Calm -- 30.26 in1024.7 mb 0.00 in0.0 mm 0.00 in0.0 mm 0.01 in0.3 mm
06:55 AM 50.4°F10.2°C 49.6°F9.8°C 97% Calm Calm -- 30.26 in1024.7 mb 0.00 in0.0 mm 0.00 in0.0 mm 0.01 in0.3 mm
06:50 AM 50.5°F10.3°C 49.6°F9.8°C 97% Calm Calm -- 30.26 in1024.7 mb 0.01 in0.3 mm 0.00 in0.0 mm 0.01 in0.3 mm
06:45 AM 50.4°F10.2°C 49.6°F9.8°C 97% Calm Calm -- 30.26 in1024.7 mb 0.01 in0.3 mm 0.00 in0.0 mm 0.01 in0.3 mm
06:40 AM 51.4°F10.8°C 50.9°F10.5°C 98% Calm Calm -- 30.26 in1024.7 mb 0.01 in0.3 mm 0.00 in0.0 mm 0.01 in0.3 mm
06:35 AM 51.4°F10.8°C 50.9°F10.5°C 98% Calm Calm -- 30.26 in1024.7 mb 0.01 in0.3 mm 0.00 in0.0 mm 0.01 in0.3 mm
06:30 AM 51.3°F10.7°C 50.7°F10.4°C 98% Calm Calm -- 30.26 in1024.7 mb 0.01 in0.3 mm 0.00 in0.0 mm 0.01 in0.3 mm
06:25 AM 50.9°F10.5°C 50.4°F10.2°C 98% Calm Calm -- 30.26 in1024.7 mb 0.01 in0.3 mm 0.00 in0.0 mm 0.01 in0.3 mm
06:20 AM 50.7°F10.4°C 49.8°F9.9°C 97% Calm Calm -- 30.25 in1024.4 mb 0.01 in0.3 mm 0.00 in0.0 mm 0.01 in0.3 mm
06:15 AM 50.4°F10.2°C 49.6°F9.8°C 97% Calm Calm -- 30.25 in1024.4 mb 0.01 in0.3 mm 0.00 in0.0 mm 0.01 in0.3 mm
06:10 AM 50.4°F10.2°C 49.5°F9.7°C 97% Calm Calm -- 30.25 in1024.4 mb 0.01 in0.3 mm 0.00 in0.0 mm 0.01 in0.3 mm
06:05 AM 50.5°F10.3°C 49.6°F9.8°C 97% Calm Calm -- 30.25 in1024.4 mb 0.01 in0.3 mm 0.00 in0.0 mm 0.01 in0.3 mm
06:00 AM 50.4°F10.2°C 49.6°F9.8°C 97% Calm Calm -- 30.25 in1024.4 mb 0.01 in0.3 mm 0.00 in0.0 mm 0.01 in0.3 mm
05:55 AM 50.4°F10.2°C 49.5°F9.7°C 97% Calm Calm -- 30.25 in1024.4 mb 0.01 in0.3 mm 0.12 in3.0 mm 0.01 in0.3 mm
05:50 AM 50.5°F10.3°C 49.6°F9.8°C 97% Calm Calm -- 30.25 in1024.4 mb 0.00 in0.0 mm 0.00 in0.0 mm 0.00 in0.0 mm
05:45 AM 50.7°F10.4°C 50.0°F10.0°C 97% Calm Calm -- 30.25 in1024.4 mb 0.00 in0.0 mm 0.00 in0.0 mm 0.00 in0.0 mm
05:40 AM 50.9°F10.5°C 50.0°F10.0°C 97% Calm Calm -- 30.25 in1024.4 mb 0.00 in0.0 mm 0.00 in0.0 mm 0.00 in0.0 mm
05:35 AM 51.1°F10.6°C 50.4°F10.2°C 97% Calm Calm -- 30.25 in1024.4 mb 0.00 in0.0 mm 0.00 in0.0 mm 0.00 in0.0 mm
05:30 AM 51.1°F10.6°C 50.4°F10.2°C 97% Calm Calm -- 30.25 in1024.4 mb 0.00 in0.0 mm 0.00 in0.0 mm 0.00 in0.0 mm
05:25 AM 50.9°F10.5°C 50.0°F10.0°C 97% Calm Calm -- 30.25 in1024.4 mb 0.00 in0.0 mm 0.00 in0.0 mm 0.00 in0.0 mm
05:20 AM 50.7°F10.4°C 49.8°F9.9°C 97% Calm Calm -- 30.25 in1024.4 mb 0.00 in0.0 mm 0.00 in0.0 mm 0.00 in0.0 mm
05:15 AM 50.2°F10.1°C 49.3°F9.6°C 97% Calm Calm -- 30.25 in1024.4 mb 0.00 in0.0 mm 0.00 in0.0 mm 0.00 in0.0 mm
05:10 AM 49.3°F9.6°C 48.4°F9.1°C 97% Calm Calm -- 30.25 in1024.4 mb 0.00 in0.0 mm 0.00 in0.0 mm 0.00 in0.0 mm
05:05 AM 48.6°F9.2°C 47.5°F8.6°C 96% Calm Calm -- 30.26 in1024.7 mb 0.00 in0.0 mm 0.00 in0.0 mm 0.00 in0.0 mm
05:00 AM 49.1°F9.5°C 48.2°F9.0°C 97% Calm Calm -- 30.26 in1024.7 mb 0.00 in0.0 mm 0.00 in0.0 mm 0.00 in0.0 mm
04:55 AM 49.8°F9.9°C 48.9°F9.4°C 97% Calm Calm -- 30.26 in1024.7 mb 0.00 in0.0 mm 0.00 in0.0 mm 0.00 in0.0 mm
04:50 AM 49.8°F9.9°C 49.1°F9.5°C 97% Calm Calm -- 30.26 in1024.7 mb 0.00 in0.0 mm 0.00 in0.0 mm 0.00 in0.0 mm
04:45 AM 49.8°F9.9°C 49.1°F9.5°C 97% Calm Calm -- 30.26 in1024.7 mb 0.00 in0.0 mm 0.00 in0.0 mm 0.00 in0.0 mm
04:40 AM 50.0°F10.0°C 48.9°F9.4°C 96% Calm Calm -- 30.26 in1024.7 mb 0.00 in0.0 mm 0.00 in0.0 mm 0.00 in0.0 mm
04:35 AM 50.2°F10.1°C 48.9°F9.4°C 96% Calm Calm -- 30.26 in1024.7 mb 0.00 in0.0 mm 0.00 in0.0 mm 0.00 in0.0 mm
04:30 AM 50.4°F10.2°C 49.3°F9.6°C 96% Calm Calm -- 30.26 in1024.7 mb 0.00 in0.0 mm 0.00 in0.0 mm 0.00 in0.0 mm
04:25 AM 50.4°F10.2°C 49.3°F9.6°C 96% Calm Calm -- 30.26 in1024.7 mb 0.00 in0.0 mm 0.00 in0.0 mm 0.00 in0.0 mm
04:20 AM 51.1°F10.6°C 49.8°F9.9°C 96% Calm Calm -- 30.26 in1024.7 mb 0.00 in0.0 mm 0.00 in0.0 mm 0.00 in0.0 mm
04:15 AM 50.9°F10.5°C 49.8°F9.9°C 96% Calm Calm 1.0 mph1.6 kmh 30.26 in1024.7 mb 0.00 in0.0 mm 0.00 in0.0 mm 0.00 in0.0 mm
04:10 AM 51.1°F10.6°C 50.0°F10.0°C 96% Calm Calm 1.0 mph1.6 kmh 30.26 in1024.7 mb 0.00 in0.0 mm 0.00 in0.0 mm 0.00 in0.0 mm
04:05 AM 51.3°F10.7°C 50.2°F10.1°C 96% Calm Calm 1.0 mph1.6 kmh 30.26 in1024.7 mb 0.00 in0.0 mm 0.00 in0.0 mm 0.00 in0.0 mm
04:00 AM 52.0°F11.1°C 51.3°F10.7°C 97% Calm Calm 1.0 mph1.6 kmh 30.26 in1024.7 mb 0.00 in0.0 mm 0.00 in0.0 mm 0.00 in0.0 mm
03:55 AM 52.5°F11.4°C 51.8°F11.0°C 97% Calm Calm 1.0 mph1.6 kmh 30.26 in1024.7 mb 0.00 in0.0 mm 0.00 in0.0 mm 0.00 in0.0 mm
03:50 AM 52.0°F11.1°C 50.7°F10.4°C 96% Calm Calm 1.0 mph1.6 kmh 30.26 in1024.7 mb 0.00 in0.0 mm 0.00 in0.0 mm 0.00 in0.0 mm
03:45 AM 51.8°F11.0°C 50.7°F10.4°C 96% Calm Calm 1.0 mph1.6 kmh 30.27 in1025.1 mb 0.00 in0.0 mm 0.00 in0.0 mm 0.00 in0.0 mm
03:40 AM 51.4°F10.8°C 50.4°F10.2°C 96% Calm Calm 1.0 mph1.6 kmh 30.27 in1025.1 mb 0.00 in0.0 mm 0.00 in0.0 mm 0.00 in0.0 mm
03:35 AM 52.3°F11.3°C 51.3°F10.7°C 96% Calm Calm 1.0 mph1.6 kmh 30.27 in1025.1 mb 0.00 in0.0 mm 0.00 in0.0 mm 0.00 in0.0 mm
03:30 AM 52.5°F11.4°C 51.4°F10.8°C 96% Calm Calm 1.0 mph1.6 kmh 30.27 in1025.1 mb 0.00 in0.0 mm 0.00 in0.0 mm 0.00 in0.0 mm
03:25 AM 52.3°F11.3°C 51.3°F10.7°C 96% Calm Calm 1.0 mph1.6 kmh 30.27 in1025.1 mb 0.00 in0.0 mm 0.00 in0.0 mm 0.00 in0.0 mm
03:20 AM 52.9°F11.6°C 51.8°F11.0°C 96% Calm Calm -- 30.27 in1025.1 mb 0.00 in0.0 mm 0.00 in0.0 mm 0.00 in0.0 mm
03:15 AM 53.2°F11.8°C 52.2°F11.2°C 96% Calm Calm 1.0 mph1.6 kmh 30.27 in1025.1 mb 0.00 in0.0 mm 0.00 in0.0 mm 0.00 in0.0 mm
03:10 AM 53.1°F11.7°C 52.0°F11.1°C 96% Calm Calm 1.0 mph1.6 kmh 30.26 in1024.7 mb 0.00 in0.0 mm 0.00 in0.0 mm 0.00 in0.0 mm
03:05 AM 53.2°F11.8°C 52.2°F11.2°C 96% Calm Calm -- 30.26 in1024.7 mb 0.00 in0.0 mm 0.00 in0.0 mm 0.00 in0.0 mm
03:00 AM 53.4°F11.9°C 52.3°F11.3°C 96% Calm Calm 1.0 mph1.6 kmh 30.26 in1024.7 mb 0.00 in0.0 mm 0.00 in0.0 mm 0.00 in0.0 mm
02:55 AM 52.9°F11.6°C 51.8°F11.0°C 96% Calm Calm 1.0 mph1.6 kmh 30.26 in1024.7 mb 0.00 in0.0 mm 0.00 in0.0 mm 0.00 in0.0 mm
02:50 AM 52.0°F11.1°C 50.5°F10.3°C 95% Calm Calm 1.0 mph1.6 kmh 30.26 in1024.7 mb 0.00 in0.0 mm 0.00 in0.0 mm 0.00 in0.0 mm
02:45 AM 53.1°F11.7°C 52.0°F11.1°C 96% Calm Calm -- 30.26 in1024.7 mb 0.00 in0.0 mm 0.00 in0.0 mm 0.00 in0.0 mm
02:40 AM 52.5°F11.4°C 51.3°F10.7°C 95% Calm Calm -- 30.26 in1024.7 mb 0.00 in0.0 mm 0.00 in0.0 mm 0.00 in0.0 mm
02:35 AM 54.1°F12.3°C 53.1°F11.7°C 96% Calm Calm 1.0 mph1.6 kmh 30.26 in1024.7 mb 0.00 in0.0 mm 0.00 in0.0 mm 0.00 in0.0 mm
02:30 AM 54.0°F12.2°C 52.7°F11.5°C 96% Calm Calm 1.0 mph1.6 kmh 30.26 in1024.7 mb 0.00 in0.0 mm 0.00 in0.0 mm 0.00 in0.0 mm
02:25 AM 53.6°F12.0°C 52.5°F11.4°C 96% Calm Calm 1.0 mph1.6 kmh 30.26 in1024.7 mb 0.00 in0.0 mm 0.00 in0.0 mm 0.00 in0.0 mm
02:20 AM 53.4°F11.9°C 52.3°F11.3°C 96% Calm Calm 1.0 mph1.6 kmh 30.26 in1024.7 mb 0.00 in0.0 mm 0.00 in0.0 mm 0.00 in0.0 mm
02:15 AM 53.1°F11.7°C 51.6°F10.9°C 95% Calm Calm 1.0 mph1.6 kmh 30.26 in1024.7 mb 0.00 in0.0 mm 0.00 in0.0 mm 0.00 in0.0 mm
02:10 AM 53.4°F11.9°C 52.3°F11.3°C 96% Calm Calm 1.0 mph1.6 kmh 30.26 in1024.7 mb 0.00 in0.0 mm 0.00 in0.0 mm 0.00 in0.0 mm
02:05 AM 53.2°F11.8°C 51.8°F11.0°C 95% Calm Calm -- 30.26 in1024.7 mb 0.00 in0.0 mm 0.00 in0.0 mm 0.00 in0.0 mm
02:00 AM 54.0°F12.2°C 52.5°F11.4°C 95% Calm Calm 1.0 mph1.6 kmh 30.27 in1025.1 mb 0.00 in0.0 mm 0.00 in0.0 mm 0.00 in0.0 mm
01:55 AM 54.1°F12.3°C 52.7°F11.5°C 95% 1.0 mph NNE1.6 kmh NNE 1.0 mph1.6 kmh 30.27 in1025.1 mb 0.00 in0.0 mm 0.00 in0.0 mm 0.00 in0.0 mm
01:50 AM 54.3°F12.4°C 53.1°F11.7°C 95% Calm Calm 1.0 mph1.6 kmh 30.27 in1025.1 mb 0.00 in0.0 mm 0.00 in0.0 mm 0.00 in0.0 mm
01:45 AM 54.7°F12.6°C 53.6°F12.0°C 96% Calm Calm 1.0 mph1.6 kmh 30.27 in1025.1 mb 0.00 in0.0 mm 0.00 in0.0 mm 0.00 in0.0 mm
01:40 AM 54.7°F12.6°C 53.6°F12.0°C 96% Calm Calm 1.0 mph1.6 kmh 30.27 in1025.1 mb 0.00 in0.0 mm 0.00 in0.0 mm 0.00 in0.0 mm
01:35 AM 54.3°F12.4°C 53.2°F11.8°C 96% Calm Calm 1.0 mph1.6 kmh 30.27 in1025.1 mb 0.00 in0.0 mm 0.00 in0.0 mm 0.00 in0.0 mm
01:30 AM 54.1°F12.3°C 52.7°F11.5°C 95% Calm Calm -- 30.27 in1025.1 mb 0.00 in0.0 mm 0.00 in0.0 mm 0.00 in0.0 mm
01:25 AM 54.1°F12.3°C 52.9°F11.6°C 95% Calm Calm 1.0 mph1.6 kmh 30.27 in1025.1 mb 0.00 in0.0 mm 0.00 in0.0 mm 0.00 in0.0 mm
01:20 AM 54.7°F12.6°C 53.6°F12.0°C 96% 1.0 mph NW1.6 kmh NW 2.0 mph3.2 kmh 30.27 in1025.1 mb 0.00 in0.0 mm 0.00 in0.0 mm 0.00 in0.0 mm
01:15 AM 54.5°F12.5°C 53.1°F11.7°C 95% 1.0 mph W1.6 kmh W 2.0 mph3.2 kmh 30.27 in1025.1 mb 0.00 in0.0 mm 0.00 in0.0 mm 0.00 in0.0 mm
01:10 AM 54.5°F12.5°C 53.1°F11.7°C 95% Calm Calm 1.0 mph1.6 kmh 30.27 in1025.1 mb 0.00 in0.0 mm 0.00 in0.0 mm 0.00 in0.0 mm
01:05 AM 54.9°F12.7°C 53.8°F12.1°C 96% 1.0 mph SW1.6 kmh SW 2.0 mph3.2 kmh 30.27 in1025.1 mb 0.00 in0.0 mm 0.00 in0.0 mm 0.00 in0.0 mm
01:00 AM 54.5°F12.5°C 53.1°F11.7°C 95% 1.0 mph SW1.6 kmh SW 2.0 mph3.2 kmh 30.27 in1025.1 mb 0.00 in0.0 mm 0.00 in0.0 mm 0.00 in0.0 mm
12:55 AM 54.9°F12.7°C 53.4°F11.9°C 95% 1.0 mph SW1.6 kmh SW 2.0 mph3.2 kmh 30.27 in1025.1 mb 0.00 in0.0 mm 0.00 in0.0 mm 0.00 in0.0 mm
12:50 AM 55.2°F12.9°C 54.1°F12.3°C 96% Calm Calm 1.0 mph1.6 kmh 30.27 in1025.1 mb 0.00 in0.0 mm 0.00 in0.0 mm 0.00 in0.0 mm
12:45 AM 55.2°F12.9°C 54.1°F12.3°C 96% Calm Calm 1.0 mph1.6 kmh 30.27 in1025.1 mb 0.00 in0.0 mm 0.00 in0.0 mm 0.00 in0.0 mm
12:40 AM 54.9°F12.7°C 53.4°F11.9°C 95% 1.0 mph SW1.6 kmh SW 1.0 mph1.6 kmh 30.27 in1025.1 mb 0.00 in0.0 mm 0.00 in0.0 mm 0.00 in0.0 mm
12:35 AM 54.7°F12.6°C 53.2°F11.8°C 95% 1.0 mph SW1.6 kmh SW 1.0 mph1.6 kmh 30.27 in1025.1 mb 0.00 in0.0 mm 0.00 in0.0 mm 0.00 in0.0 mm
12:30 AM 54.9°F12.7°C 53.4°F11.9°C 95% Calm Calm 1.0 mph1.6 kmh 30.27 in1025.1 mb 0.00 in0.0 mm 0.00 in0.0 mm 0.00 in0.0 mm
12:25 AM 54.9°F12.7°C 53.4°F11.9°C 95% Calm Calm 1.0 mph1.6 kmh 30.27 in1025.1 mb 0.00 in0.0 mm 0.00 in0.0 mm 0.00 in0.0 mm
12:20 AM 54.9°F12.7°C 53.4°F11.9°C 95% Calm Calm -- 30.27 in1025.1 mb 0.00 in0.0 mm 0.00 in0.0 mm 0.00 in0.0 mm
12:15 AM 55.0°F12.8°C 53.6°F12.0°C 95% Calm Calm -- 30.27 in1025.1 mb 0.00 in0.0 mm 0.00 in0.0 mm 0.00 in0.0 mm
12:10 AM 55.0°F12.8°C 53.8°F12.1°C 95% Calm Calm -- 30.27 in1025.1 mb 0.00 in0.0 mm 0.00 in0.0 mm 0.00 in0.0 mm
12:05 AM 55.2°F12.9°C 54.0°F12.2°C 95% Calm Calm -- 30.27 in1025.1 mb 0.00 in0.0 mm 0.00 in0.0 mm 0.00 in0.0 mm
12:00 AM 55.6°F13.1°C 54.1°F12.3°C 95% Calm Calm -- 30.27 in1025.1 mb 0.00 in0.0 mm 0.00 in0.0 mm 0.00 in0.0 mm